< < Back
Terminal Aerodrome Forecast


Current Version              Previous Versions:   1  2  3  4  5  6  7  8  9  

Terminal Aerodrome Forecast

923
FTUS44 KMOB 031120
TAFPNS
TAF
KPNS 031120Z 0312/0412 34003KT P6SM VCSH SCT007
     FM031400 33006KT P6SM VCSH SCT009 BKN025
     FM031900 33007KT P6SM VCTS SCT025CB BKN040
     FM040000 35008KT P6SM BKN050
     FM040900 35008KT P6SM SKC=

Latest METAR

623
SAUS70 KWBC 030800 RRU
MTRPNS
METAR KPNS 031153Z 00000KT 6SM BR FEW013 SCT026 SCT047 22/21 A2992 RMK
AO2 SLP133 T02220206 10222 20200 53008


USA.gov is the U.S. government's official web portal to all federal, state and local government web resources and services.